Old Nevada, Nevada
Current Conditions -  °F | °C
As of 8:56 PM on Wednesday 26 Nov 2014 (Local Time) from KHND Reporting Station
Clear Clear  
Wind Chill: 52°   Ceiling: Unl
Heat Index: 52°   Visibility: 10mi
Dew Point: 15°   Wind: 5mph
Humidity: 23%   Direction: 220°SW
Pressure: 30.34"   Gusts: NA
Location:  35.8437°N, 115.134°W
Report Text: KHND 270456Z AUTO 22004KT 10SM CLR 11/M09 A3034 RMK AO2 T01111094 SLP274
Loading
Personal Weather Stations






























Interactive Weather Map New forecast layout! Learn more

10-Day Weather Forecast

Advertisements
Track Severe Weather on mobile